createdAt,value
2022-11-25T00:01:12.915Z,102531.50
2022-11-25T00:04:00.534Z,102525.41
2022-11-25T00:06:55.126Z,102531.56
2022-11-25T00:09:41.896Z,102535.94
2022-11-25T00:12:28.644Z,102532.47
2022-11-25T00:15:15.379Z,102528.09
2022-11-25T00:18:02.108Z,102531.63
2022-11-25T00:20:48.838Z,102532.53
2022-11-25T00:23:35.562Z,102533.41
2022-11-25T00:26:38.178Z,102529.06
2022-11-25T00:29:29.510Z,102530.81
2022-11-25T00:32:16.335Z,102524.63
2022-11-25T00:35:03.045Z,102542.19
2022-11-25T00:37:49.774Z,102531.69
2022-11-25T00:40:36.521Z,102523.81
2022-11-25T00:43:21.642Z,102536.94
2022-11-25T00:46:08.940Z,102532.66
2022-11-25T00:48:55.699Z,102531.75
2022-11-25T00:51:42.497Z,102536.16
2022-11-25T00:54:29.417Z,102522.13
2022-11-25T00:57:16.220Z,102538.81
2022-11-25T01:00:03.139Z,102530.13
2022-11-25T01:02:49.887Z,102518.59
2022-11-25T01:05:36.697Z,102537.09
2022-11-25T01:08:23.478Z,102534.50
2022-11-25T01:11:18.643Z,102530.16
2022-11-25T01:14:06.181Z,102537.16
2022-11-25T01:16:53.434Z,102530.19
2022-11-25T01:19:21.141Z,102530.16
2022-11-25T01:21:47.967Z,102528.44
2022-11-25T01:24:16.002Z,102543.31
2022-11-25T01:26:44.230Z,102544.22
2022-11-25T01:29:36.859Z,102536.38
2022-11-25T01:32:23.698Z,102452.50
2022-11-25T01:35:10.410Z,102538.06
2022-11-25T01:37:57.118Z,102534.56
2022-11-25T01:40:44.111Z,102534.59
2022-11-25T01:43:34.746Z,102527.63
2022-11-25T01:46:27.054Z,102537.19
2022-11-25T01:49:23.660Z,102468.59
2022-11-25T01:52:26.350Z,102533.78
2022-11-25T01:55:03.140Z,102544.28
2022-11-25T01:57:56.074Z,102543.34
2022-11-25T02:00:44.721Z,102545.16
2022-11-25T02:03:31.513Z,102540.81
2022-11-25T02:06:37.259Z,102543.41
2022-11-25T02:09:26.938Z,102542.56
2022-11-25T02:12:14.232Z,102545.16
2022-11-25T02:15:01.915Z,102538.22
2022-11-25T02:17:48.755Z,102546.06
2022-11-25T02:20:38.004Z,102470.34
2022-11-25T02:23:54.823Z,102543.44
2022-11-25T02:26:42.051Z,102463.19
2022-11-25T02:29:30.101Z,102538.22
2022-11-25T02:32:17.270Z,102542.56
2022-11-25T02:35:10.488Z,102545.19
2022-11-25T02:37:57.284Z,102549.63
2022-11-25T02:40:45.754Z,102485.41
2022-11-25T02:43:32.981Z,102511.72
2022-11-25T02:46:27.092Z,102533.91
2022-11-25T02:49:16.231Z,102542.63
2022-11-25T02:52:04.786Z,102547.88
2022-11-25T02:54:51.654Z,102523.28
2022-11-25T06:58:36.686Z,102623.41
2022-11-25T07:01:31.708Z,102628.72
2022-11-25T07:04:11.901Z,102625.22
2022-11-25T07:06:38.705Z,102627.88
2022-11-25T07:09:25.870Z,102625.25
2022-11-25T07:12:08.890Z,102565.31
2022-11-25T07:14:55.620Z,102617.44
2022-11-25T07:17:42.328Z,102620.03
2022-11-25T07:20:29.459Z,102622.72
2022-11-25T07:23:16.939Z,102627.13
2022-11-25T07:26:03.664Z,102632.41
2022-11-25T07:28:50.458Z,102635.06
2022-11-25T07:31:38.915Z,102627.19
2022-11-25T07:34:29.705Z,102630.66
2022-11-25T07:37:16.580Z,102636.81
2022-11-25T07:40:03.314Z,102634.22
2022-11-25T07:42:30.232Z,102642.97
2022-11-25T07:45:16.959Z,102639.47
2022-11-25T07:48:10.363Z,102649.97
2022-11-25T07:50:57.145Z,102646.50
2022-11-25T07:53:43.887Z,102630.78
2022-11-25T07:56:30.732Z,102636.88
2022-11-25T07:59:18.008Z,102625.34
2022-11-25T08:02:05.200Z,102606.06
2022-11-25T08:04:51.938Z,102634.22
2022-11-25T08:07:38.689Z,102651.78
2022-11-25T08:10:26.001Z,102640.41
2022-11-25T08:13:12.764Z,102644.78
2022-11-25T08:15:59.648Z,102650.03
2022-11-25T08:18:46.595Z,102639.56
2022-11-25T08:21:34.897Z,102626.28
2022-11-25T08:24:21.618Z,102630.75
2022-11-25T08:27:08.539Z,102643.13
2022-11-25T08:29:55.246Z,102639.59
2022-11-25T08:32:42.080Z,102646.63
2022-11-25T08:35:24.973Z,102657.16
2022-11-25T08:37:51.883Z,102650.13
2022-11-25T08:40:39.162Z,102655.41
2022-11-25T08:43:29.394Z,102658.03
2022-11-25T08:46:16.968Z,102615.81
2022-11-25T08:49:04.424Z,102648.38
2022-11-25T08:51:52.891Z,102663.34
2022-11-25T08:54:39.785Z,102665.16
2022-11-25T08:57:26.715Z,102661.69
2022-11-25T09:00:13.689Z,102660.75
2022-11-25T09:03:03.431Z,102669.59
2022-11-25T09:05:51.391Z,102672.25
2022-11-25T09:08:38.182Z,102670.53
2022-11-25T09:11:25.453Z,102671.44
2022-11-25T09:14:12.424Z,102671.47
2022-11-25T09:16:59.302Z,102669.72
2022-11-25T09:19:46.019Z,102672.34
2022-11-25T09:22:32.736Z,102682.88
2022-11-25T09:25:19.451Z,102680.28
2022-11-25T09:28:06.272Z,102678.56
2022-11-25T09:30:53.066Z,102671.53
2022-11-25T09:33:40.399Z,102612.50
2022-11-25T09:36:27.341Z,102681.25
2022-11-25T09:39:14.150Z,102684.75
2022-11-25T09:42:18.755Z,102682.16
2022-11-25T09:45:41.946Z,102685.66
2022-11-25T09:48:50.482Z,102685.69
2022-11-25T09:51:42.221Z,102681.34
2022-11-25T09:54:40.078Z,102685.72
2022-11-25T09:57:29.877Z,102675.25
2022-11-25T10:00:26.452Z,102678.78
2022-11-25T10:03:22.880Z,102677.03
2022-11-25T10:06:11.379Z,102687.59
2022-11-25T10:09:08.071Z,102681.47
2022-11-25T10:12:09.692Z,102688.53
2022-11-25T10:15:06.398Z,102687.69
2022-11-25T10:17:56.003Z,102693.84
2022-11-25T10:20:28.235Z,102685.09
2022-11-25T10:23:36.656Z,102582.03
2022-11-25T10:26:31.223Z,102675.53
2022-11-25T10:29:39.739Z,102684.25
2022-11-25T10:32:48.400Z,102678.19
2022-11-25T10:35:28.551Z,102665.00
2022-11-25T10:38:00.461Z,102680.88
2022-11-25T10:40:47.260Z,102682.63
2022-11-25T10:43:34.815Z,102683.53
2022-11-25T10:47:11.865Z,102687.03
2022-11-25T10:50:07.119Z,102684.44
2022-11-25T10:53:06.783Z,102680.94
2022-11-25T10:55:54.812Z,102697.63
2022-11-25T10:58:59.056Z,102689.72
2022-11-25T11:01:45.874Z,102697.69
2022-11-25T11:04:35.469Z,102698.56
2022-11-25T11:07:28.975Z,102698.59
2022-11-25T11:10:35.664Z,102702.13
2022-11-25T11:13:26.240Z,102700.41
2022-11-25T11:16:14.216Z,102705.66
2022-11-25T11:19:01.851Z,102705.66
2022-11-25T11:21:54.584Z,102703.91
2022-11-25T11:24:58.157Z,102710.09
2022-11-25T11:27:45.335Z,102707.47
2022-11-25T11:30:36.600Z,102673.16
2022-11-25T11:33:23.302Z,102706.63
2022-11-25T11:36:27.812Z,102711.03
2022-11-25T11:39:23.415Z,102712.78
2022-11-25T11:42:34.903Z,102711.91
2022-11-25T11:45:52.580Z,102701.41
2022-11-25T11:48:39.239Z,102698.81
2022-11-25T11:51:37.679Z,102708.50
2022-11-25T11:54:41.396Z,102707.63
2022-11-25T11:57:55.177Z,102705.91
2022-11-25T12:00:42.896Z,102707.66
2022-11-25T12:03:47.980Z,102707.66
2022-11-25T12:06:40.170Z,102702.41
2022-11-25T12:09:39.079Z,102710.31
2022-11-25T12:12:34.729Z,102712.09
2022-11-25T12:15:29.551Z,102712.13
2022-11-25T12:18:22.496Z,102711.22
2022-11-25T12:21:21.135Z,102716.50
2022-11-25T12:24:21.459Z,102684.72
2022-11-25T12:27:20.686Z,102721.75
2022-11-25T12:30:37.726Z,102728.78
2022-11-25T12:33:40.279Z,102710.31
2022-11-25T12:36:49.808Z,102722.66
2022-11-25T12:39:51.053Z,102679.53
2022-11-25T12:42:44.299Z,102722.72
2022-11-25T12:45:44.968Z,102721.84
2022-11-25T12:48:32.253Z,102720.13
2022-11-25T12:51:46.864Z,102723.63
2022-11-25T12:54:47.535Z,102730.66
2022-11-25T12:57:49.307Z,102725.41
2022-11-25T13:00:48.226Z,102484.91
2022-11-25T13:03:59.243Z,102721.94
2022-11-25T13:07:00.058Z,102729.81
2022-11-25T13:10:05.521Z,102730.72
2022-11-25T13:13:18.934Z,102736.00
2022-11-25T13:16:08.994Z,102676.03
2022-11-25T13:19:01.751Z,102736.88
2022-11-25T13:21:48.563Z,102743.03
2022-11-25T13:24:51.783Z,102740.41
2022-11-25T13:27:58.695Z,102741.31
2022-11-25T13:30:54.267Z,102742.22
2022-11-25T13:33:43.674Z,102748.34
2022-11-25T13:36:36.153Z,102744.88
2022-11-25T13:39:36.268Z,102723.72
2022-11-25T13:42:44.065Z,102738.75
2022-11-25T13:45:45.562Z,102729.97
2022-11-25T13:48:40.105Z,102740.53
2022-11-25T13:51:42.559Z,102743.16
2022-11-25T13:54:37.795Z,102740.53
2022-11-25T13:57:33.755Z,102739.69
2022-11-25T14:00:25.983Z,102739.69
2022-11-25T14:03:12.775Z,102743.19
2022-11-25T14:05:56.629Z,102742.34
2022-11-25T14:09:14.392Z,102743.22
2022-11-25T14:12:40.994Z,102744.09
2022-11-25T14:15:38.153Z,102656.94
2022-11-25T14:19:28.046Z,102740.63
2022-11-25T14:22:37.873Z,102752.91
2022-11-25T14:25:53.941Z,102750.28
2022-11-25T14:28:43.368Z,102749.41
2022-11-25T14:31:36.137Z,102745.03
2022-11-25T14:35:04.641Z,102745.06
2022-11-25T14:38:04.824Z,102713.34
2022-11-25T14:41:12.663Z,102753.84
2022-11-25T14:44:08.705Z,102755.63
2022-11-25T14:47:11.553Z,102757.34
2022-11-25T14:50:33.198Z,102761.75
2022-11-25T14:53:12.972Z,102767.91
2022-11-25T14:55:59.757Z,102756.50
2022-11-25T14:58:47.246Z,102690.38
2022-11-25T15:01:41.554Z,102760.03
2022-11-25T15:04:39.696Z,102767.91
2022-11-25T15:07:38.439Z,102730.00
2022-11-25T15:10:25.986Z,102772.28
2022-11-25T15:13:12.838Z,102754.63
2022-11-25T15:16:00.017Z,102785.50
2022-11-25T15:18:27.294Z,102767.91
2022-11-25T15:21:18.563Z,102751.16
2022-11-25T15:24:05.379Z,102783.72
2022-11-25T15:26:54.770Z,102772.34
2022-11-25T15:29:41.800Z,102774.06
2022-11-25T15:32:40.028Z,102785.53
2022-11-25T15:35:28.764Z,102777.66
2022-11-25T15:38:15.601Z,102789.06
2022-11-25T15:41:03.116Z,102779.41
2022-11-25T15:43:51.870Z,102779.41
2022-11-25T15:46:38.660Z,102761.75
2022-11-25T15:49:27.068Z,102771.50
2022-11-25T15:52:25.965Z,102787.31
2022-11-25T15:55:17.555Z,102782.97
2022-11-25T15:58:09.794Z,102686.88
2022-11-25T16:00:56.679Z,102780.31
2022-11-25T16:03:43.498Z,102787.34
2022-11-25T16:06:47.850Z,102785.59
2022-11-25T16:09:41.717Z,102785.63
2022-11-25T16:12:37.365Z,102753.84
2022-11-25T16:15:24.387Z,102784.75
2022-11-25T16:18:32.802Z,102718.63
2022-11-25T16:21:25.079Z,102790.91
2022-11-25T16:24:19.811Z,102789.13
2022-11-25T16:27:13.491Z,102780.38
2022-11-25T16:30:30.752Z,102786.50
2022-11-25T16:33:17.707Z,102783.88
2022-11-25T16:36:08.349Z,102784.72
2022-11-25T16:38:56.388Z,102792.66
2022-11-25T16:41:46.462Z,102792.66
2022-11-25T16:44:39.246Z,102773.22
2022-11-25T16:47:25.978Z,102797.03
2022-11-25T16:50:14.438Z,102785.56
2022-11-25T16:53:01.260Z,102797.94
2022-11-25T16:55:48.036Z,102805.84
2022-11-25T16:58:42.739Z,102807.59
2022-11-25T17:01:34.393Z,102797.06
2022-11-25T17:04:21.179Z,102806.75
2022-11-25T17:07:31.502Z,102801.47
2022-11-25T17:10:14.599Z,102799.72
2022-11-25T17:13:03.255Z,102792.69
2022-11-25T17:15:53.578Z,102806.75
2022-11-25T17:18:40.617Z,102796.25
2022-11-25T17:21:29.025Z,102788.28
2022-11-25T17:24:21.271Z,102805.88
2022-11-25T17:27:16.611Z,102809.38
2022-11-25T17:30:04.153Z,102812.03
2022-11-25T17:32:51.708Z,102795.31
2022-11-25T17:35:40.293Z,102732.69
2022-11-25T17:38:37.780Z,102798.84
2022-11-25T17:41:29.332Z,102818.16
2022-11-25T17:44:16.226Z,102821.69
2022-11-25T17:47:03.059Z,102820.81
2022-11-25T17:49:49.834Z,102819.06
2022-11-25T17:52:36.567Z,102813.78
2022-11-25T17:55:23.430Z,102817.25
2022-11-25T17:58:10.535Z,102820.78
2022-11-25T18:00:58.607Z,102823.44
2022-11-25T18:03:45.447Z,102826.94
2022-11-25T18:06:32.170Z,102825.19
2022-11-25T18:09:18.906Z,102838.34
2022-11-25T18:12:12.685Z,102821.59
2022-11-25T18:14:59.439Z,102796.81
2022-11-25T18:17:46.179Z,102835.72
2022-11-25T18:20:38.935Z,102845.34
2022-11-25T18:23:25.631Z,102837.47
2022-11-25T18:26:14.891Z,102839.22
2022-11-25T18:29:01.695Z,102730.75
2022-11-25T18:31:48.533Z,102842.72
2022-11-25T18:34:36.563Z,102745.72
2022-11-25T18:37:23.506Z,102847.09
2022-11-25T18:40:10.247Z,102833.03
2022-11-25T18:42:57.175Z,102843.63
2022-11-25T18:45:48.092Z,102836.56
2022-11-25T18:48:40.934Z,102844.47
2022-11-25T18:51:31.798Z,102844.47
2022-11-25T18:54:18.529Z,102804.75
2022-11-25T18:57:09.947Z,102850.63
2022-11-25T19:00:24.426Z,102852.38
2022-11-25T19:03:03.602Z,102832.09
2022-11-25T19:05:52.833Z,102859.41
2022-11-25T19:08:40.201Z,102797.66
2022-11-25T19:11:35.929Z,102855.88
2022-11-25T19:14:26.607Z,102863.75
2022-11-25T19:17:18.332Z,102862.00
2022-11-25T19:20:06.576Z,102857.59
2022-11-25T19:22:57.874Z,102862.03
2022-11-25T19:25:47.287Z,102785.22
2022-11-25T19:28:36.405Z,102868.13
2022-11-25T19:31:23.877Z,102850.56
2022-11-25T19:34:11.352Z,102847.88
2022-11-25T19:36:58.095Z,102867.31
2022-11-25T19:39:44.827Z,102867.31
2022-11-25T19:42:31.560Z,102868.19
2022-11-25T19:45:18.349Z,102842.59
2022-11-25T19:48:08.147Z,102873.44
2022-11-25T19:50:58.738Z,102868.16
2022-11-25T19:53:46.405Z,102868.16
2022-11-25T19:56:38.238Z,102875.19
2022-11-25T19:59:25.087Z,102867.31
2022-11-25T20:02:11.914Z,102872.56
2022-11-25T20:04:58.743Z,102870.81
2022-11-25T20:07:47.048Z,102844.34
2022-11-25T20:10:40.337Z,102863.81
2022-11-25T20:13:27.157Z,102854.06
2022-11-25T20:16:15.141Z,102870.84
2022-11-25T20:19:02.468Z,102879.59
2022-11-25T20:21:56.487Z,102874.34
2022-11-25T20:24:43.236Z,102848.78
2022-11-25T20:27:32.243Z,102820.50
2022-11-25T20:30:18.981Z,102886.66
2022-11-25T20:33:05.944Z,102891.03
2022-11-25T20:35:52.883Z,102890.16
2022-11-25T20:38:46.219Z,102888.41
2022-11-25T20:41:34.181Z,102884.88
2022-11-25T20:44:21.102Z,102864.59
2022-11-25T20:47:07.909Z,102887.50
2022-11-25T20:49:54.697Z,102891.91
2022-11-25T20:52:49.873Z,102898.91
2022-11-25T20:55:43.475Z,102898.03
2022-11-25T20:58:51.835Z,102891.91
2022-11-25T21:01:41.677Z,102898.00
2022-11-25T21:04:28.460Z,102883.03
2022-11-25T21:07:15.289Z,102904.16
2022-11-25T21:10:02.723Z,102809.81
2022-11-25T21:12:49.441Z,102892.69
2022-11-25T21:15:39.563Z,102841.53
2022-11-25T21:18:26.319Z,102891.81
2022-11-25T21:21:16.261Z,102868.78
2022-11-25T21:24:05.671Z,102908.47
2022-11-25T21:26:52.450Z,102909.38
2022-11-25T21:29:39.748Z,102904.97
2022-11-25T21:32:44.681Z,102912.84
2022-11-25T21:35:32.378Z,102911.06
2022-11-25T21:38:23.546Z,102908.44
2022-11-25T21:41:12.904Z,102909.34
2022-11-25T21:44:05.457Z,102911.97
2022-11-25T21:46:52.315Z,102911.09
2022-11-25T21:49:39.569Z,102916.34
2022-11-25T21:52:26.316Z,102912.81
2022-11-25T21:55:13.069Z,102914.59
2022-11-25T21:58:00.765Z,102908.44
2022-11-25T22:00:47.566Z,102893.44
2022-11-25T22:03:39.866Z,102911.97
2022-11-25T22:06:55.707Z,102915.44
2022-11-25T22:09:42.471Z,102911.94
2022-11-25T22:12:55.604Z,102918.06
2022-11-25T22:15:43.259Z,102880.19
2022-11-25T22:18:47.672Z,102919.81
2022-11-25T22:21:35.171Z,102924.19
2022-11-25T22:24:21.871Z,102921.56
2022-11-25T22:27:11.272Z,102927.72
2022-11-25T22:29:58.017Z,102920.63
2022-11-25T22:32:45.595Z,102925.09
2022-11-25T22:35:40.980Z,102936.47
2022-11-25T22:38:36.623Z,102932.09
2022-11-25T22:41:24.411Z,102929.50
2022-11-25T22:44:12.451Z,102928.59
2022-11-25T22:46:59.194Z,102925.13
2022-11-25T22:49:49.782Z,102924.22
2022-11-25T22:52:43.829Z,102927.75
2022-11-25T22:55:57.138Z,102932.09
2022-11-25T22:58:46.313Z,102933.00
2022-11-25T23:01:35.353Z,102942.66
2022-11-25T23:04:22.347Z,102940.91
2022-11-25T23:07:09.228Z,102946.16
2022-11-25T23:09:55.979Z,102943.53
2022-11-25T23:12:42.722Z,102932.09
2022-11-25T23:15:33.162Z,102901.19
2022-11-25T23:18:22.548Z,102949.66
2022-11-25T23:21:09.267Z,102872.00
2022-11-25T23:23:56.018Z,102950.56
2022-11-25T23:26:43.324Z,102954.06
2022-11-25T23:29:30.095Z,102960.19
2022-11-25T23:32:18.698Z,102949.63
2022-11-25T23:35:06.140Z,102925.78
2022-11-25T23:37:52.910Z,102939.97
2022-11-25T23:40:41.132Z,102951.41
2022-11-25T23:43:35.414Z,102953.16
2022-11-25T23:46:22.274Z,102954.91
2022-11-25T23:49:17.335Z,102909.88
2022-11-25T23:52:07.750Z,102954.91
2022-11-25T23:55:02.466Z,102962.81
2022-11-25T23:57:53.278Z,102945.25
